Terminal Aerodrome Forecast
Issued by NWS

Home | Current Version | Previous Version | Text Only | Print | Product List | Glossary On
Versions: 1 2 3 4 5 6 7 8 9 10 11 12 13 14 15 16 17 18
000
FTUS43 KDLH 231720
TAFHIB
TAF
KHIB 231720Z 2318/2418 31009G17KT P6SM SKC
     FM232300 35005KT P6SM SCT250
     FM240300 11004KT P6SM SCT100 OVC150
     FM241500 14007KT P6SM SCT035 OVC050
      TEMPO 2417/2418 6SM -RA OVC035=

USA.gov is the U.S. government's official web portal to all federal, state and local government web resources and services.